Fairgrounds, Vermont
Current Conditions -  °F | °C
As of 7:15 PM on Sunday 23 Nov 2014 (Local Time) from KFSO Reporting Station
Overcast Overcast  
Wind Chill: 43°   Ceiling: 3900
Heat Index: 46°   Visibility: 10mi
Dew Point: 40°   Wind: 6mph
Humidity: 80%   Direction: 130°SE
Pressure: 30.02"   Gusts: NA
Location:  44.8776°N, 72.9201°W
Report Text: KFSO 240015Z AUTO 13005KT 10SM OVC039 08/05 A3002 RMK AO2 T00780045
Loading
Personal Weather Stations






























Interactive Weather Map New forecast layout! Learn more

10-Day Weather Forecast

Advertisements
Track Severe Weather on mobile